Terminal Aerodrome Forecast
Issued by NWS North Platte, NE

Home | Current Version | Previous Version | Graphics & Text | Print | Product List | Glossary Off
Versions: 1 2 3 4 5 6 7 8 9 10 11 12 13 14 15 16 17

336
FTUS43 KLBF 291720
TAFVTN
TAF
KVTN 291720Z 2918/3018 VRB06KT P6SM SKC
     FM292000 11008KT P6SM SCT070
     FM292300 14008KT 5SM -TSRA BKN060CB
     FM300800 14012KT P6SM BKN150
     FM301300 18011KT P6SM FEW150=

USA.gov is the U.S. government's official web portal to all federal, state and local government web resources and services.